Aérodrome :
LOGIN :

S'inscrire | Disclaimer

   EN    FR    IT 

 










Légende :    VFR   VFR Marginal   IFR   IFR Intensif   IFR Très Intensif
Visi : 
Plafond : 
>= 8 km
>= 3000ft
5 à 8 km
1000 à 3000 ft
1500m à 5 km
500 à 1000 ft
800 à 1500m
200 à 500 ft
< 800m
< 200 ft
Symboles :   Orages  Brouillard  Fortes neiges  Fortes précipitations  Vent > 20 kt
SIGMETs :   Divers  Orages  Givrage  Turbulence  Onde Orograph.  Cendres Volcan.







- Altitude de l'aérodrome : 112 ft
- Code IATA : KIR


EIKY - Kerry Farranfore

DERNIER METAR :
  • 171800Z 19020G30KT 7000 +RA BKN018 BKN024 OVC030 12/10 Q0997

METARs EXPIRÉS :
  • 171730Z 19016G28KT 6000 +RA BKN019 OVC023 12/10 Q0997
  • 171700Z 19020G30KT 150V210 6000 RA BKN021 12/10 Q0997
  • 171630Z 19019G32KT 7000 -RA SCT022 OVC027 13/10 Q0998
  • 171600Z 19016G26KT 160V220 9999 -RA BKN024 13/09 Q0998
  • 171530Z 19021G31KT 9000 -RA BKN024 OVC029 13/09 Q0999 RERA
  • 171500Z 19021KT 9999 -RA BKN023 OVC026 12/10 Q0999

TAF TAF EIKY
Valide du 17 à 18h jusqu'au 17 à 21h UTC


171700Z 1718/1721 18020G35KT 6000 -RA SCT012 BKN018
TEMPO 1718/1721 17026G46KT 4000 BKN009
Pas de NOTAMs connus pour ce terrain.
4 SIGMETs publiés pour la FIR Shannon (EISN) :
 
Turbulence forte
EISN SIGMET 04 VALID 171800/172200 EINN
EISN SHANNON FIR SEV TURB FCST E OF W01030 N OF N5130 SFC/FL060 MOV NE 50KT INTSF=
Onde orographique forte
EISN SIGMET 03 VALID 171655/172100 EINN
EISN SHANNON FIR SEV MTW FCST AT 1700Z N OF N5130 E OF W01030 FL080/150 STNR INTSF=
Turbulence forte
EISN SIGMET 02 VALID 171614/172000 EINN
EISN SHANNON UIR SEV TURB FCST W OF W00900 FL300/390 MOV NE 50KT NC=
Turbulence forte
EISN SIGMET 01 VALID 171515/171915 EINN
EISN SHANNON FIR SEV TURB FCST WI N5419 W01210 - N5434 W01000 - N5435 W00950 - N5200 W00945 - N5100 W00820 - N5100 W01325 - N5419 W01210 SFC/FL060 MOV E 5KT NC=



MET'MAP, la Météo Aéronautique d'un coup d'oeil ! - Copyright ORBIFLY Décembre 2007 - Disclaimer

ORBIFLY MET'MAP TEAM :

Programmation & Développement : Alexandra Zaïnal
Conception & Développement : Baudouin d'Aumeries
Co-Programmation & Développement : Marc-Olivier Méhu
Soutien technique & logistique : Manuel Goepfert

Contact : metmap@orbifly.com




SOURCES & CREDITS :

   NOAA